This is the latest recevied weather packets stored in our database for station/object N1UNH. If no packets are shown the sender has not sent any weather packets the latest 10 day(s).
| Time | Temp. | Humidity | Pressure | Rain* | Wind** | Luminosity | Snow |
|---|---|---|---|---|---|---|---|
| 1777985103 | 16.67° C | 59% | 1013.9 hPa | 0 mm | - | 128 W/m² | - |
| 1777984799 | 16.67° C | 61% | 1013.8 hPa | 0 mm | - | 151 W/m² | - |
| 1777984496 | 16.11° C | 59% | 1014 hPa | 0 mm | - | 123 W/m² | - |
| 1777984192 | 15.56° C | 63% | 1013.8 hPa | 0 mm | - | 87 W/m² | - |
| 1777983889 | 15.56° C | 61% | 1014.2 hPa | 0 mm | - | 83 W/m² | - |
| 1777983586 | 15° C | 60% | 1014.3 hPa | 0 mm | - | 65 W/m² | - |
| 1777983283 | 13.89° C | 62% | 1014.3 hPa | 0 mm | - | 53 W/m² | - |
| 1777982979 | 13.33° C | 66% | 1014.2 hPa | 0 mm | - | 47 W/m² | - |
| 1777982676 | 12.78° C | 71% | 1014.1 hPa | 0 mm | - | 44 W/m² | - |
| 1777982375 | 12.22° C | 72% | 1014 hPa | 0 mm | - | 45 W/m² | - |
| 1777982071 | 11.67° C | 74% | 1014.1 hPa | 0 mm | - | 40 W/m² | - |
| 1777981769 | 11.11° C | 77% | 1013.9 hPa | 0 mm | - | 44 W/m² | - |
| 1777981465 | 10.56° C | 77% | 1014 hPa | 0 mm | - | 47 W/m² | - |
| 1777981161 | 10.56° C | 80% | 1014 hPa | 0 mm | - | 55 W/m² | - |
| 1777980859 | 10° C | 81% | 1014 hPa | 0 mm | - | 63 W/m² | - |
| 1777980554 | 10° C | 82% | 1014.1 hPa | 0 mm | - | 39 W/m² | - |
| 1777980252 | 9.44° C | 83% | 1014 hPa | 0 mm | - | 40 W/m² | - |
| 1777979948 | 9.44° C | 83% | 1014 hPa | 0 mm | - | 39 W/m² | - |
| 1777979643 | 8.89° C | 83% | 1013.8 hPa | 0 mm | - | 49 W/m² | - |
| 1777979339 | 8.89° C | 83% | 1013.8 hPa | 0 mm | - | 38 W/m² | - |
| 1777979037 | 8.89° C | 82% | 1013.8 hPa | 0 mm | - | 32 W/m² | - |
| 1777978733 | 8.89° C | 82% | 1014 hPa | 0 mm | - | 29 W/m² | - |
| 1777978429 | 8.33° C | 81% | 1013.8 hPa | 0 mm | - | 29 W/m² | - |
| 1777978126 | 8.33° C | 82% | 1013.6 hPa | 0 mm | - | 33 W/m² | - |
| 1777977823 | 8.33° C | 82% | 1013.8 hPa | 0 mm | - | 27 W/m² | - |
* Rain latest hour (hover to see other rain measurements)
** Current wind speed in m/s (hover to see current wind gust speed)